Time;durP1;ratioP1;P1;durP2;ratioP2;P2;SDS_P1;SDS_P2;PMS_P1;PMS_P2;Temp;Humidity;BMP_temperature;BMP_pressure;BME280_temperature;BME280_humidity;BME280_pressure;Samples;Min_cycle;Max_cycle;Signal;HPM_P1;HPM_P2
2023/09/02 00:00:32;;;;;;;7.80;5.68;;;20.30;58.30;;;;;;5027489;28;114438;-79
2023/09/02 00:02:59;;;;;;;7.95;5.80;;;20.20;58.80;;;;;;5028072;28;114134;-79
2023/09/02 00:05:26;;;;;;;8.23;5.72;;;20.20;60.00;;;;;;5026433;28;114717;-79
2023/09/02 00:07:53;;;;;;;8.70;5.13;;;20.20;59.90;;;;;;5025297;28;114562;-79
2023/09/02 00:10:21;;;;;;;6.72;4.85;;;20.10;58.10;;;;;;5026669;28;114270;-79
2023/09/02 00:12:48;;;;;;;7.30;5.40;;;20.10;58.70;;;;;;5026292;28;114243;-79
2023/09/02 00:15:16;;;;;;;6.80;4.75;;;20.10;58.60;;;;;;5025922;28;114728;-79
2023/09/02 00:17:43;;;;;;;7.55;4.95;;;20.20;57.80;;;;;;5026294;28;114597;-78
2023/09/02 00:20:11;;;;;;;6.63;4.88;;;20.20;58.30;;;;;;5027170;28;114263;-79
2023/09/02 00:22:38;;;;;;;7.53;5.22;;;20.20;58.70;;;;;;5025887;28;114422;-79
2023/09/02 00:25:05;;;;;;;6.57;4.78;;;20.10;59.20;;;;;;5024003;28;116278;-78
2023/09/02 00:27:32;;;;;;;8.68;5.05;;;20.10;59.10;;;;;;5026376;27;116029;-79
2023/09/02 00:29:59;;;;;;;6.68;4.93;;;20.00;58.30;;;;;;5025886;28;114297;-79
2023/09/02 00:32:28;;;;;;;7.00;4.78;;;20.00;59.60;;;;;;5025840;28;114032;-79
2023/09/02 00:34:56;;;;;;;7.63;5.07;;;20.00;58.30;;;;;;5024446;28;115556;-79
2023/09/02 00:37:23;;;;;;;6.55;4.35;;;20.00;59.80;;;;;;5026374;28;114675;-79
2023/09/02 00:39:50;;;;;;;6.07;4.15;;;20.10;58.40;;;;;;5026830;27;114074;-79
2023/09/02 00:42:19;;;;;;;6.10;5.00;;;20.10;58.20;;;;;;5009361;28;114250;-79
2023/09/02 00:44:47;;;;;;;5.28;4.30;;;20.10;60.70;;;;;;5024793;28;114925;-79
2023/09/02 00:47:14;;;;;;;8.13;5.05;;;20.10;58.20;;;;;;5008245;28;114646;-79
2023/09/02 00:49:41;;;;;;;5.82;4.00;;;20.10;59.90;;;;;;5025204;28;114407;-79
2023/09/02 00:52:08;;;;;;;6.68;4.45;;;20.10;58.40;;;;;;5027434;28;114724;-79
2023/09/02 00:54:35;;;;;;;6.53;4.30;;;20.10;58.50;;;;;;5025882;28;116154;-79
2023/09/02 00:57:03;;;;;;;6.43;4.55;;;20.20;58.00;;;;;;5025527;28;115004;-79
2023/09/02 00:59:31;;;;;;;5.60;3.92;;;20.20;57.80;;;;;;5008453;28;114260;-79
2023/09/02 01:02:01;;;;;;;6.28;4.30;;;20.30;57.50;;;;;;5009417;28;114117;-79
2023/09/02 01:04:32;;;;;;;5.55;3.88;;;20.20;57.80;;;;;;5024334;28;116227;-79
2023/09/02 01:06:59;;;;;;;6.32;4.47;;;20.30;57.60;;;;;;5024161;28;116857;-79
2023/09/02 01:09:26;;;;;;;6.43;4.47;;;20.30;57.60;;;;;;5025075;28;114149;-79
2023/09/02 01:11:53;;;;;;;5.65;4.10;;;20.30;57.80;;;;;;5026467;28;114961;-79
2023/09/02 01:14:21;;;;;;;5.90;3.90;;;20.40;57.30;;;;;;5023577;28;116954;-79
2023/09/02 01:16:50;;;;;;;6.28;4.40;;;20.30;57.30;;;;;;5025694;28;114590;-78
2023/09/02 01:19:23;;;;;;;7.93;5.05;;;20.30;57.30;;;;;;5026623;28;114163;-78
2023/09/02 01:22:06;;;;;;;8.48;5.32;;;20.30;58.10;;;;;;5026431;28;114421;-78
2023/09/02 01:24:45;;;;;;;5.63;4.43;;;20.40;58.20;;;;;;5025103;28;114940;-78
2023/09/02 01:27:24;;;;;;;6.22;4.22;;;20.30;57.80;;;;;;5024372;28;114585;-78
2023/09/02 01:30:03;;;;;;;6.30;4.07;;;20.40;57.70;;;;;;5026120;28;114277;-78
2023/09/02 01:32:37;;;;;;;6.15;4.25;;;20.30;57.40;;;;;;5008669;28;114139;-78
2023/09/02 01:35:06;;;;;;;8.55;4.75;;;20.30;57.70;;;;;;5024043;28;114914;-79
2023/09/02 01:37:34;;;;;;;6.80;4.70;;;20.30;58.20;;;;;;5023817;28;115275;-76
2023/09/02 01:40:03;;;;;;;7.57;4.88;;;20.30;57.70;;;;;;5025049;28;114300;-78
2023/09/02 01:42:31;;;;;;;5.97;4.05;;;20.30;57.90;;;;;;5008842;28;114543;-78
2023/09/02 01:44:58;;;;;;;5.78;4.20;;;20.30;57.50;;;;;;5007143;28;115857;-78
2023/09/02 01:47:25;;;;;;;7.78;5.10;;;20.30;57.90;;;;;;5023835;28;114570;-78
2023/09/02 01:49:52;;;;;;;7.20;4.80;;;20.20;58.20;;;;;;5007775;28;114469;-78
2023/09/02 01:52:20;;;;;;;6.68;4.63;;;20.20;57.90;;;;;;5007886;28;114448;-78
2023/09/02 01:54:47;;;;;;;6.90;4.70;;;20.20;57.90;;;;;;5023902;28;115535;-79
2023/09/02 01:57:14;;;;;;;6.50;5.32;;;20.20;57.90;;;;;;5023976;28;115534;-78
2023/09/02 01:59:41;;;;;;;6.25;4.97;;;20.20;58.10;;;;;;5008096;28;114377;-78
2023/09/02 02:02:08;;;;;;;6.75;4.53;;;20.30;58.50;;;;;;5024756;28;114123;-78
2023/09/02 02:04:37;;;;;;;9.23;5.65;;;20.20;57.80;;;;;;5023716;28;115246;-78
2023/09/02 02:07:06;;;;;;;6.97;4.70;;;20.30;58.40;;;;;;5024065;28;114963;-78
2023/09/02 02:09:43;;;;;;;10.82;7.07;;;20.30;58.20;;;;;;5024330;28;114233;-78
2023/09/02 02:12:10;;;;;;;8.30;4.60;;;20.30;59.90;;;;;;5024382;28;114338;-78
2023/09/02 02:14:37;;;;;;;9.35;5.32;;;20.20;58.50;;;;;;5022761;28;114962;-79
2023/09/02 02:17:06;;;;;;;7.90;4.75;;;20.20;58.90;;;;;;5024539;28;114431;-78
2023/09/02 02:19:33;;;;;;;7.20;4.90;;;20.20;58.60;;;;;;4991098;28;114335;-79
2023/09/02 02:22:00;;;;;;;8.00;4.85;;;20.20;58.20;;;;;;5024347;28;114419;-78
2023/09/02 02:24:27;;;;;;;11.00;7.18;;;20.20;58.20;;;;;;5023131;28;116341;-79
2023/09/02 02:26:55;;;;;;;6.80;4.50;;;20.30;60.30;;;;;;5023128;28;114726;-79
2023/09/02 02:29:22;;;;;;;9.43;5.15;;;20.30;58.20;;;;;;5007635;28;114507;-78
2023/09/02 02:31:50;;;;;;;7.30;5.20;;;20.30;58.80;;;;;;5024593;28;114335;-79
2023/09/02 02:34:17;;;;;;;8.75;6.05;;;20.30;58.90;;;;;;5023375;28;115179;-78
2023/09/02 02:36:44;;;;;;;8.27;5.07;;;20.20;59.60;;;;;;5006609;28;114903;-77
2023/09/02 02:39:11;;;;;;;5.32;4.35;;;20.30;58.60;;;;;;5023788;28;114012;-78
2023/09/02 02:41:38;;;;;;;9.07;5.50;;;20.20;58.30;;;;;;5023864;28;114354;-78
2023/09/02 02:44:05;;;;;;;9.07;4.88;;;20.30;59.00;;;;;;5023233;28;115006;-77
2023/09/02 02:46:32;;;;;;;7.97;4.70;;;20.20;58.60;;;;;;5023322;27;114701;-78
2023/09/02 02:49:00;;;;;;;7.72;4.70;;;20.20;58.70;;;;;;5027611;28;114396;-78
2023/09/02 02:51:28;;;;;;;8.60;4.97;;;20.20;58.80;;;;;;5027262;28;114433;-78
2023/09/02 02:53:55;;;;;;;8.80;5.13;;;20.20;59.50;;;;;;5027721;27;115007;-78
2023/09/02 02:56:22;;;;;;;6.90;4.57;;;20.10;59.10;;;;;;5028053;28;114670;-78
2023/09/02 02:58:50;;;;;;;8.00;5.80;;;20.10;59.10;;;;;;5027254;28;114227;-79
2023/09/02 03:01:17;;;;;;;7.25;4.95;;;20.20;60.10;;;;;;5027433;28;114406;-78
2023/09/02 03:03:45;;;;;;;13.10;6.20;;;20.20;59.20;;;;;;5025858;28;114975;-78
2023/09/02 03:06:17;;;;;;;6.60;4.60;;;20.20;61.20;;;;;;5009563;28;115910;-78
2023/09/02 03:08:44;;;;;;;5.88;4.43;;;20.20;58.90;;;;;;5010888;28;114128;-79
2023/09/02 03:11:11;;;;;;;8.27;5.50;;;20.10;58.80;;;;;;5026983;28;114273;-78
2023/09/02 03:13:39;;;;;;;9.82;5.28;;;20.20;60.00;;;;;;5025889;28;115469;-78
2023/09/02 03:16:26;;;;;;;7.38;4.50;;;20.20;60.00;;;;;;5012359;28;114658;-79
2023/09/02 03:18:53;;;;;;;7.75;4.90;;;20.20;58.80;;;;;;5026838;28;114228;-78
2023/09/02 03:21:20;;;;;;;6.97;5.03;;;20.20;59.80;;;;;;5011052;28;114226;-78
2023/09/02 03:23:48;;;;;;;7.13;4.80;;;20.20;59.90;;;;;;5026197;28;114942;-78
2023/09/02 03:26:15;;;;;;;6.45;4.40;;;20.20;59.60;;;;;;5026093;28;114710;-78
2023/09/02 03:28:44;;;;;;;6.68;4.22;;;20.20;58.70;;;;;;5026577;28;114308;-78
2023/09/02 03:31:12;;;;;;;6.22;4.78;;;20.20;58.60;;;;;;5026781;28;114509;-78
2023/09/02 03:33:41;;;;;;;6.50;4.50;;;20.30;59.30;;;;;;5025684;28;116135;-78
2023/09/02 03:36:17;;;;;;;6.72;4.50;;;20.30;58.80;;;;;;5025816;28;114601;-79
2023/09/02 03:38:45;;;;;;;6.43;4.18;;;20.30;58.40;;;;;;5026870;28;114113;-78
2023/09/02 03:41:17;;;;;;;6.95;4.45;;;20.30;58.60;;;;;;5028131;27;114306;-78
2023/09/02 03:43:45;;;;;;;6.57;3.97;;;20.30;58.50;;;;;;5009443;28;116519;-78
2023/09/02 03:46:13;;;;;;;5.68;3.97;;;20.30;58.20;;;;;;5025823;28;114686;-78
2023/09/02 03:48:40;;;;;;;7.03;4.75;;;20.30;58.20;;;;;;5025866;28;114339;-78
2023/09/02 03:51:12;;;;;;;5.45;4.38;;;20.30;59.60;;;;;;5009411;28;114335;-78
2023/09/02 03:53:43;;;;;;;6.32;4.68;;;20.30;58.80;;;;;;5009674;28;115058;-79
2023/09/02 03:56:12;;;;;;;6.68;4.45;;;20.30;58.90;;;;;;5025430;28;114700;-76
2023/09/02 03:58:39;;;;;;;7.85;4.78;;;20.30;58.80;;;;;;5026245;27;114088;-76
2023/09/02 04:01:08;;;;;;;6.15;4.70;;;20.30;58.90;;;;;;5009881;28;114305;-78
2023/09/02 04:03:35;;;;;;;8.43;4.47;;;20.30;58.50;;;;;;5025401;28;115111;-78
2023/09/02 04:06:05;;;;;;;5.88;3.90;;;20.30;58.70;;;;;;5009317;28;114674;-78
2023/09/02 04:08:34;;;;;;;7.70;4.45;;;20.30;58.30;;;;;;5026383;28;114170;-78
2023/09/02 04:11:04;;;;;;;8.30;4.47;;;20.30;58.30;;;;;;5026516;28;114389;-77
2023/09/02 04:13:31;;;;;;;5.50;4.38;;;20.30;58.90;;;;;;5026198;28;116004;-77
2023/09/02 04:16:16;;;;;;;6.22;4.43;;;20.30;59.10;;;;;;5026625;28;114742;-78
2023/09/02 04:18:44;;;;;;;6.75;4.13;;;20.30;58.70;;;;;;5026998;28;114182;-77
2023/09/02 04:21:11;;;;;;;7.03;4.57;;;20.30;58.50;;;;;;5026208;28;114189;-77
2023/09/02 04:23:41;;;;;;;6.80;4.22;;;20.30;58.30;;;;;;5025115;28;114847;-77
2023/09/02 04:26:14;;;;;;;5.40;3.90;;;20.30;58.40;;;;;;5025215;28;114776;-78
2023/09/02 04:28:42;;;;;;;6.50;4.07;;;20.40;58.40;;;;;;5009233;28;114187;-78
2023/09/02 04:31:09;;;;;;;4.97;3.92;;;20.30;58.40;;;;;;5025471;28;114363;-78
2023/09/02 04:33:36;;;;;;;5.22;4.00;;;20.40;58.10;;;;;;5024749;28;116736;-78
2023/09/02 04:36:05;;;;;;;6.60;3.85;;;20.40;58.20;;;;;;5026185;28;115840;-77
2023/09/02 04:38:36;;;;;;;5.63;4.15;;;20.40;58.10;;;;;;5025681;28;114204;-78
2023/09/02 04:41:05;;;;;;;6.47;4.50;;;20.40;58.50;;;;;;5026644;28;114245;-78
2023/09/02 04:43:34;;;;;;;7.10;3.65;;;20.40;59.30;;;;;;5007511;28;114394;-77
2023/09/02 04:46:02;;;;;;;7.25;3.63;;;20.50;58.80;;;;;;5024420;28;114659;-78
2023/09/02 04:48:32;;;;;;;5.15;3.72;;;20.40;58.40;;;;;;5024132;28;114423;-78
2023/09/02 04:51:03;;;;;;;6.05;3.80;;;20.50;58.20;;;;;;5009015;28;114336;-78
2023/09/02 04:53:31;;;;;;;5.20;3.53;;;20.40;58.10;;;;;;5008775;28;115320;-78
2023/09/02 04:56:00;;;;;;;4.78;3.58;;;20.50;58.20;;;;;;5024445;28;114675;-78
2023/09/02 04:58:29;;;;;;;7.68;5.13;;;20.50;58.50;;;;;;5025509;28;114405;-78
2023/09/02 05:01:10;;;;;;;5.93;3.67;;;20.50;61.10;;;;;;5027076;27;114128;-79
2023/09/02 05:03:48;;;;;;;6.15;3.80;;;20.60;58.50;;;;;;5009350;28;115081;-78
2023/09/02 05:06:15;;;;;;;5.43;3.53;;;20.50;58.70;;;;;;5024188;28;115305;-80
2023/09/02 05:08:53;;;;;;;6.65;5.13;;;20.50;58.90;;;;;;5008926;28;114233;-79
2023/09/02 05:11:27;;;;;;;4.72;3.63;;;20.60;61.70;;;;;;5009911;28;114323;-79
2023/09/02 05:13:54;;;;;;;5.97;3.58;;;20.50;59.10;;;;;;5025009;28;115311;-78
2023/09/02 05:16:21;;;;;;;5.25;4.00;;;20.60;58.50;;;;;;5007349;28;117007;-79
2023/09/02 05:18:48;;;;;;;6.15;4.10;;;20.60;59.50;;;;;;5024963;28;114495;-78
2023/09/02 05:21:16;;;;;;;6.55;5.20;;;20.60;59.80;;;;;;5025206;28;114761;-77
2023/09/02 05:23:45;;;;;;;4.35;3.00;;;20.70;60.80;;;;;;5024243;28;114799;-78
2023/09/02 05:26:12;;;;;;;5.22;3.58;;;20.80;58.50;;;;;;5007573;28;117805;-77
2023/09/02 05:28:39;;;;;;;8.23;4.32;;;20.80;59.30;;;;;;5024876;28;114191;-78
2023/09/02 05:31:06;;;;;;;8.70;4.72;;;20.80;59.60;;;;;;5025040;28;114475;-78
2023/09/02 05:33:34;;;;;;;7.05;5.90;;;20.80;61.10;;;;;;5006674;28;116599;-78
2023/09/02 05:36:01;;;;;;;8.00;5.82;;;20.60;62.40;;;;;;5007190;28;115819;-78
2023/09/02 05:38:28;;;;;;;7.75;5.53;;;20.50;61.80;;;;;;5025072;28;114425;-78
2023/09/02 05:40:55;;;;;;;7.55;5.75;;;20.40;62.00;;;;;;5024831;28;114316;-78
2023/09/02 05:43:24;;;;;;;5.82;4.97;;;20.40;62.80;;;;;;5025081;28;114808;-78
2023/09/02 05:45:51;;;;;;;7.68;6.38;;;20.30;62.40;;;;;;5025112;28;114668;-78
2023/09/02 05:48:19;;;;;;;6.93;4.22;;;20.30;63.70;;;;;;5024850;28;114311;-78
2023/09/02 05:50:46;;;;;;;6.15;4.15;;;20.20;62.20;;;;;;5026477;28;114223;-78
2023/09/02 05:53:13;;;;;;;9.82;8.10;;;20.10;62.00;;;;;;5024653;28;116246;-79
2023/09/02 05:55:40;;;;;;;9.02;6.03;;;20.10;64.40;;;;;;5024991;28;114763;-78
2023/09/02 05:58:07;;;;;;;7.88;6.07;;;20.00;64.00;;;;;;5025477;28;114346;-78
2023/09/02 06:00:36;;;;;;;10.13;8.65;;;20.10;63.90;;;;;;5025987;28;114164;-79
2023/09/02 06:03:03;;;;;;;8.57;6.15;;;20.10;64.90;;;;;;5024740;28;115024;-79
2023/09/02 06:05:31;;;;;;;13.90;11.88;;;20.00;62.90;;;;;;5023788;28;114597;-79
2023/09/02 06:07:58;;;;;;;7.65;6.05;;;20.00;65.10;;;;;;5025836;28;114059;-78
2023/09/02 06:10:25;;;;;;;16.13;13.52;;;20.00;63.30;;;;;;5025907;28;114370;-78
2023/09/02 06:12:52;;;;;;;15.25;12.63;;;20.00;65.20;;;;;;5024690;28;115312;-79
2023/09/02 06:15:19;;;;;;;9.45;8.52;;;20.00;65.00;;;;;;5024606;28;114577;-79
2023/09/02 06:17:46;;;;;;;8.60;7.70;;;19.90;63.60;;;;;;5024318;28;114377;-78
2023/09/02 06:20:20;;;;;;;10.02;8.15;;;19.90;63.00;;;;;;5025617;28;113990;-77
2023/09/02 06:22:47;;;;;;;16.58;14.85;;;20.00;63.60;;;;;;5026118;27;114957;-78
2023/09/02 06:25:14;;;;;;;14.38;12.25;;;20.00;65.00;;;;;;5027964;28;114649;-78
2023/09/02 06:27:41;;;;;;;8.38;7.57;;;20.00;65.00;;;;;;5027624;28;114138;-79
2023/09/02 06:30:09;;;;;;;8.98;7.43;;;20.00;63.70;;;;;;5027855;28;114392;-78
2023/09/02 06:32:36;;;;;;;10.27;9.10;;;20.10;63.10;;;;;;5027965;28;114949;-78
2023/09/02 06:35:05;;;;;;;9.38;7.25;;;20.10;63.60;;;;;;5027977;28;115584;-77
2023/09/02 06:37:32;;;;;;;12.23;10.45;;;20.10;62.80;;;;;;5027532;28;114374;-78
2023/09/02 06:40:04;;;;;;;11.32;10.23;;;20.20;64.10;;;;;;5028164;28;114233;-78
2023/09/02 06:42:31;;;;;;;9.05;8.13;;;20.30;64.50;;;;;;5027378;27;116191;-78
2023/09/02 06:44:58;;;;;;;11.63;9.40;;;20.30;63.10;;;;;;5026668;28;114623;-78
2023/09/02 06:47:25;;;;;;;10.43;9.00;;;20.30;64.20;;;;;;5010422;28;114506;-78
2023/09/02 06:49:52;;;;;;;12.25;9.88;;;20.40;64.00;;;;;;5010650;28;114347;-78
2023/09/02 06:52:19;;;;;;;9.90;8.90;;;20.30;64.50;;;;;;5009883;28;116167;-78
2023/09/02 06:54:49;;;;;;;8.40;7.47;;;20.30;64.60;;;;;;5027651;28;114883;-78
2023/09/02 06:57:17;;;;;;;11.73;10.55;;;20.30;63.80;;;;;;5027429;28;114266;-78
2023/09/02 06:59:44;;;;;;;12.73;10.90;;;20.30;64.70;;;;;;5028622;28;114340;-76
2023/09/02 07:02:11;;;;;;;11.82;10.73;;;20.30;64.80;;;;;;5026328;28;114937;-78
2023/09/02 07:04:38;;;;;;;13.65;12.23;;;20.40;63.90;;;;;;5009785;28;115850;-78
2023/09/02 07:07:05;;;;;;;12.00;8.77;;;20.60;64.40;;;;;;5028353;28;114426;-78
2023/09/02 07:09:32;;;;;;;13.80;11.60;;;20.70;62.80;;;;;;5028089;28;114242;-78
2023/09/02 07:11:59;;;;;;;19.92;17.90;;;20.80;63.40;;;;;;5026739;28;114958;-78
2023/09/02 07:14:26;;;;;;;18.92;16.98;;;21.00;63.20;;;;;;5026515;28;115917;-78
2023/09/02 07:16:53;;;;;;;16.33;14.65;;;21.10;63.10;;;;;;5028003;28;114045;-78
2023/09/02 07:19:20;;;;;;;15.02;13.10;;;21.20;63.40;;;;;;5028378;28;114021;-78
2023/09/02 07:21:47;;;;;;;12.07;10.50;;;21.30;63.50;;;;;;5026993;28;115997;-78
2023/09/02 07:24:14;;;;;;;16.73;13.73;;;21.30;62.90;;;;;;5027287;28;115162;-80
2023/09/02 07:26:41;;;;;;;10.70;9.02;;;21.30;62.90;;;;;;5028324;28;114442;-79
2023/09/02 07:29:08;;;;;;;12.90;9.88;;;21.30;60.90;;;;;;5028503;28;114166;-79
2023/09/02 07:31:35;;;;;;;16.58;14.98;;;21.30;60.70;;;;;;5027223;28;114921;-79
2023/09/02 07:34:02;;;;;;;17.02;15.25;;;21.50;61.70;;;;;;5024445;27;115246;-79
2023/09/02 07:36:30;;;;;;;12.85;11.52;;;21.60;62.10;;;;;;5027591;28;114147;-79
2023/09/02 07:38:56;;;;;;;16.77;15.07;;;21.70;61.80;;;;;;5028028;28;114196;-79
2023/09/02 07:41:24;;;;;;;16.75;14.80;;;21.80;61.80;;;;;;5027108;28;114967;-79
2023/09/02 07:43:51;;;;;;;13.70;12.10;;;21.90;62.00;;;;;;5026544;28;114783;-79
2023/09/02 07:46:18;;;;;;;13.60;11.63;;;21.90;60.60;;;;;;5026476;28;114557;-79
2023/09/02 07:48:48;;;;;;;9.90;8.82;;;22.00;60.70;;;;;;5027968;28;114249;-78
2023/09/02 07:51:17;;;;;;;11.63;10.38;;;22.00;60.50;;;;;;5025907;28;115863;-79
2023/09/02 07:53:44;;;;;;;13.32;11.27;;;22.20;61.00;;;;;;5026810;28;114621;-77
2023/09/02 07:56:11;;;;;;;11.25;9.40;;;22.20;61.00;;;;;;5027725;28;114053;-77
2023/09/02 07:58:42;;;;;;;10.25;7.88;;;22.20;60.70;;;;;;5027819;28;114164;-77
2023/09/02 08:01:09;;;;;;;13.45;8.13;;;22.10;61.10;;;;;;5025875;28;115521;-77
2023/09/02 08:03:36;;;;;;;9.57;7.32;;;22.00;61.10;;;;;;5026667;28;115233;-78
2023/09/02 08:06:07;;;;;;;9.93;7.93;;;22.00;61.20;;;;;;5009639;28;114100;-78
2023/09/02 08:08:35;;;;;;;8.55;6.20;;;21.90;61.20;;;;;;5027423;28;114378;-79
2023/09/02 08:11:05;;;;;;;7.72;5.95;;;21.80;61.50;;;;;;5025487;28;115491;-78
2023/09/02 08:13:33;;;;;;;7.07;5.95;;;21.80;61.50;;;;;;5024736;28;114938;-80
2023/09/02 08:16:07;;;;;;;7.75;5.60;;;21.70;61.60;;;;;;5025934;28;114359;-79
2023/09/02 08:18:34;;;;;;;9.07;5.68;;;21.70;61.60;;;;;;5026485;28;114220;-77
2023/09/02 08:21:08;;;;;;;7.15;5.07;;;21.70;61.50;;;;;;5025134;28;114966;-77
2023/09/02 08:23:38;;;;;;;6.63;4.72;;;21.80;61.00;;;;;;5026103;28;115237;-77
2023/09/02 08:26:09;;;;;;;5.57;4.13;;;21.80;60.90;;;;;;5025609;28;114071;-78
2023/09/02 08:28:36;;;;;;;6.10;4.18;;;21.80;60.60;;;;;;5026898;28;114543;-78
2023/09/02 08:31:03;;;;;;;6.57;4.57;;;21.80;60.50;;;;;;5026037;28;114915;-79
2023/09/02 08:33:30;;;;;;;5.85;4.22;;;21.80;59.80;;;;;;5025972;28;114737;-78
2023/09/02 08:35:57;;;;;;;7.28;4.85;;;21.80;60.60;;;;;;5026906;28;114365;-78
2023/09/02 08:38:24;;;;;;;7.53;4.68;;;21.80;60.40;;;;;;5008997;28;114428;-78
2023/09/02 08:40:52;;;;;;;6.85;4.68;;;21.80;59.80;;;;;;5025650;28;116164;-78
2023/09/02 08:43:20;;;;;;;7.28;4.63;;;21.80;60.40;;;;;;5024884;28;114884;-78
2023/09/02 08:45:49;;;;;;;6.63;3.67;;;21.90;60.30;;;;;;5024889;27;114363;-78
2023/09/02 08:48:23;;;;;;;5.25;3.90;;;21.90;60.00;;;;;;5025797;28;114224;-78
2023/09/02 08:50:53;;;;;;;4.70;3.72;;;22.20;59.60;;;;;;5024300;28;114913;-79
2023/09/02 08:53:20;;;;;;;5.03;3.08;;;22.30;59.30;;;;;;5008230;28;114558;-78
2023/09/02 08:55:50;;;;;;;6.35;3.05;;;22.50;57.60;;;;;;5025653;28;114319;-78
2023/09/02 08:58:17;;;;;;;6.25;3.75;;;22.70;57.70;;;;;;5025394;28;114289;-78
2023/09/02 09:00:47;;;;;;;5.70;3.90;;;22.70;57.10;;;;;;5025496;28;116787;-79
2023/09/02 09:03:15;;;;;;;6.07;4.05;;;22.60;57.20;;;;;;5008392;28;118216;-79
2023/09/02 09:05:42;;;;;;;5.35;3.40;;;22.40;57.30;;;;;;5009073;28;114392;-79
2023/09/02 09:08:10;;;;;;;5.47;3.22;;;22.30;57.20;;;;;;5026026;28;114304;-78
2023/09/02 09:10:40;;;;;;;4.30;2.92;;;22.20;57.10;;;;;;5024554;28;114811;-79
2023/09/02 09:13:09;;;;;;;4.28;2.80;;;22.20;57.40;;;;;;5025365;27;114570;-79
2023/09/02 09:15:37;;;;;;;5.40;3.28;;;22.20;58.20;;;;;;5024684;28;114351;-80
2023/09/02 09:18:04;;;;;;;9.85;5.03;;;22.30;58.30;;;;;;5025018;28;114370;-77
2023/09/02 09:20:32;;;;;;;8.88;5.75;;;22.30;58.00;;;;;;5024205;28;115061;-78
2023/09/02 09:22:59;;;;;;;6.53;4.45;;;22.30;58.20;;;;;;5024202;28;114656;-78
2023/09/02 09:25:26;;;;;;;6.82;5.40;;;22.30;57.20;;;;;;5024691;28;114080;-78
2023/09/02 09:28:09;;;;;;;9.02;5.13;;;22.30;57.70;;;;;;5026050;28;114277;-78
2023/09/02 09:30:36;;;;;;;8.73;5.13;;;22.50;57.70;;;;;;5025327;28;114889;-77
2023/09/02 09:33:07;;;;;;;6.28;4.45;;;22.50;57.30;;;;;;5024441;28;115216;-78
2023/09/02 09:35:35;;;;;;;6.07;4.68;;;22.60;56.50;;;;;;5026728;28;114518;-78
2023/09/02 09:38:04;;;;;;;6.32;5.05;;;22.70;56.60;;;;;;5032497;28;114248;-78
2023/09/02 09:40:31;;;;;;;7.80;4.95;;;22.80;56.20;;;;;;5022684;28;118037;-78
2023/09/02 09:42:59;;;;;;;9.75;5.90;;;22.80;56.20;;;;;;5023775;28;114834;-78
2023/09/02 09:45:27;;;;;;;6.07;5.05;;;22.90;56.50;;;;;;5024926;28;114337;-78
2023/09/02 09:47:59;;;;;;;7.85;5.65;;;22.90;56.00;;;;;;5026031;28;114336;-79
2023/09/02 09:50:27;;;;;;;5.72;4.70;;;22.90;55.10;;;;;;5024010;28;114938;-79
2023/09/02 09:53:04;;;;;;;5.68;4.45;;;22.90;55.10;;;;;;5025165;27;114618;-79
2023/09/02 09:55:33;;;;;;;6.22;5.15;;;23.00;55.40;;;;;;5024484;28;114445;-78
2023/09/02 09:58:00;;;;;;;8.15;5.22;;;23.00;55.80;;;;;;5028794;28;114235;-77
2023/09/02 10:00:28;;;;;;;8.95;6.32;;;23.10;56.30;;;;;;5027495;28;114921;-78
2023/09/02 10:02:58;;;;;;;10.40;6.88;;;23.10;56.30;;;;;;5028616;28;114829;-78
2023/09/02 10:05:29;;;;;;;10.35;7.70;;;23.10;55.20;;;;;;5027525;28;114148;-78
2023/09/02 10:08:06;;;;;;;8.80;6.53;;;22.90;55.50;;;;;;5027968;28;114049;-78
2023/09/02 10:10:40;;;;;;;9.20;6.35;;;22.90;56.20;;;;;;5027004;28;116111;-79
2023/09/02 10:13:07;;;;;;;8.52;6.70;;;22.80;55.60;;;;;;5028053;28;116199;-78
2023/09/02 10:15:34;;;;;;;7.40;6.43;;;22.70;56.80;;;;;;5028779;28;114470;-79
2023/09/02 10:18:04;;;;;;;9.30;6.53;;;22.70;56.70;;;;;;5028108;28;114756;-78
2023/09/02 10:20:33;;;;;;;8.32;6.10;;;22.70;56.80;;;;;;5028308;28;114862;-78
2023/09/02 10:23:06;;;;;;;7.88;6.57;;;22.60;56.70;;;;;;5028608;28;114905;-79
2023/09/02 10:25:45;;;;;;;6.93;5.22;;;22.50;57.30;;;;;;5029315;28;114302;-78
2023/09/02 10:28:17;;;;;;;6.18;4.45;;;22.50;56.90;;;;;;5029101;28;114377;-78
2023/09/02 10:30:48;;;;;;;8.40;5.45;;;22.30;56.30;;;;;;5027688;28;114889;-78
2023/09/02 10:33:23;;;;;;;6.75;4.25;;;22.30;56.70;;;;;;5026880;28;114670;-78
2023/09/02 10:35:59;;;;;;;5.00;4.20;;;22.30;57.30;;;;;;5028985;28;114116;-79
2023/09/02 10:38:28;;;;;;;6.85;4.07;;;22.20;57.40;;;;;;5027529;28;114159;-78
2023/09/02 10:41:00;;;;;;;5.38;3.80;;;22.20;57.60;;;;;;5028013;28;115005;-79
2023/09/02 10:43:27;;;;;;;5.40;4.25;;;22.20;57.70;;;;;;5026441;28;115918;-78
2023/09/02 10:45:54;;;;;;;4.53;3.90;;;22.20;57.60;;;;;;5027499;28;114645;-79
2023/09/02 10:48:21;;;;;;;4.30;3.67;;;22.20;57.30;;;;;;5027967;28;114301;-78
2023/09/02 10:50:48;;;;;;;5.40;4.35;;;22.20;56.80;;;;;;5026714;28;115039;-78
2023/09/02 10:53:15;;;;;;;5.20;3.88;;;22.20;58.00;;;;;;5026261;28;115244;-78
2023/09/02 10:55:59;;;;;;;6.25;4.03;;;22.20;57.10;;;;;;5026862;28;114366;-78
2023/09/02 10:58:27;;;;;;;6.20;3.80;;;22.30;56.80;;;;;;5027388;28;114201;-78
2023/09/02 11:00:54;;;;;;;4.28;3.38;;;22.30;57.60;;;;;;5027504;28;114844;-77
2023/09/02 11:03:40;;;;;;;4.50;3.03;;;22.40;56.80;;;;;;5027783;28;114910;-77
2023/09/02 11:06:11;;;;;;;5.20;3.30;;;22.50;56.30;;;;;;5028566;28;114252;-78
2023/09/02 11:08:49;;;;;;;4.68;3.10;;;22.40;55.90;;;;;;5026663;27;114264;-79
2023/09/02 11:11:17;;;;;;;5.20;2.95;;;22.50;55.70;;;;;;5026161;28;114970;-78
2023/09/02 11:14:06;;;;;;;4.20;2.53;;;22.50;55.60;;;;;;5026212;28;114761;-78
2023/09/02 11:16:38;;;;;;;4.80;2.60;;;22.70;55.30;;;;;;5028191;28;114247;-79
2023/09/02 11:19:08;;;;;;;4.22;2.45;;;22.60;55.20;;;;;;5028305;28;114200;-79
2023/09/02 11:21:43;;;;;;;5.47;2.58;;;22.70;55.30;;;;;;5026720;28;116998;-79
2023/09/02 11:24:19;;;;;;;;;;;22.70;55.60;;;;;;5026583;28;114793;-79
2023/09/02 11:26:57;;;;;;;5.07;2.92;;;22.60;55.80;;;;;;5027125;28;114315;-79
2023/09/02 11:29:25;;;;;;;5.53;3.05;;;22.60;55.60;;;;;;5028196;28;114208;-79
2023/09/02 11:31:59;;;;;;;8.07;3.70;;;22.60;56.30;;;;;;5025999;28;115307;-79
2023/09/02 11:34:27;;;;;;;4.88;3.80;;;22.60;56.30;;;;;;5025930;28;114731;-79
2023/09/02 11:36:56;;;;;;;4.72;3.13;;;22.60;56.20;;;;;;5028179;28;114371;-78
2023/09/02 11:39:30;;;;;;;4.15;2.85;;;22.60;55.30;;;;;;5010363;28;114293;-79
2023/09/02 11:42:07;;;;;;;4.38;2.92;;;22.60;54.90;;;;;;5026560;28;114891;-80
2023/09/02 11:44:34;;;;;;;4.40;2.80;;;22.60;55.10;;;;;;5025830;28;114668;-78
2023/09/02 11:47:02;;;;;;;4.45;2.58;;;22.50;54.70;;;;;;5027167;28;114452;-78
2023/09/02 11:49:29;;;;;;;4.60;2.67;;;22.50;55.20;;;;;;5026694;28;114359;-79
2023/09/02 11:51:56;;;;;;;4.50;2.70;;;22.60;54.90;;;;;;5026917;28;116086;-79
2023/09/02 11:54:23;;;;;;;3.40;2.67;;;22.70;55.00;;;;;;5025625;28;114718;-77
2023/09/02 11:56:55;;;;;;;3.60;2.60;;;22.80;54.70;;;;;;5009751;28;114417;-78
2023/09/02 11:59:22;;;;;;;4.85;2.80;;;22.80;54.60;;;;;;5027855;28;114519;-78
2023/09/02 12:02:09;;;;;;;3.40;2.17;;;22.80;54.80;;;;;;5026787;28;114858;-78
2023/09/02 12:04:40;;;;;;;4.47;2.60;;;23.00;54.80;;;;;;5009315;28;117678;-79
2023/09/02 12:07:08;;;;;;;3.88;2.75;;;23.00;54.50;;;;;;5026288;28;114357;-79
2023/09/02 12:09:35;;;;;;;4.60;2.50;;;23.00;54.90;;;;;;5009551;28;114396;-78
2023/09/02 12:12:03;;;;;;;3.45;2.25;;;23.00;54.60;;;;;;5026104;27;114908;-78
2023/09/02 12:14:30;;;;;;;5.43;2.50;;;23.10;54.50;;;;;;5024973;28;114718;-78
2023/09/02 12:16:58;;;;;;;3.58;1.95;;;23.20;53.90;;;;;;5026114;28;114418;-78
2023/09/02 12:19:25;;;;;;;3.95;2.00;;;23.30;53.20;;;;;;5008825;28;114169;-79
2023/09/02 12:21:53;;;;;;;3.67;2.85;;;23.40;52.90;;;;;;5026202;28;114833;-78
2023/09/02 12:24:20;;;;;;;4.57;3.00;;;23.40;52.50;;;;;;5026237;28;114579;-79
2023/09/02 12:26:51;;;;;;;4.28;3.50;;;23.50;52.20;;;;;;5026130;28;114099;-78
2023/09/02 12:29:24;;;;;;;3.90;2.90;;;23.50;51.90;;;;;;5026504;28;114405;-78
2023/09/02 12:31:58;;;;;;;3.63;2.70;;;23.60;51.50;;;;;;5025255;28;114925;-79
2023/09/02 12:34:33;;;;;;;3.95;2.20;;;23.60;51.20;;;;;;5025162;28;114948;-78
2023/09/02 12:37:13;;;;;;;5.10;2.15;;;23.60;51.40;;;;;;5009691;28;114584;-79
2023/09/02 12:39:40;;;;;;;3.33;1.98;;;23.60;51.70;;;;;;5027168;28;114392;-78
2023/09/02 12:42:25;;;;;;;4.07;2.08;;;23.50;51.10;;;;;;5024573;28;114917;-78
2023/09/02 12:44:54;;;;;;;4.45;1.92;;;23.50;51.00;;;;;;5024656;28;117971;-80